Time;durP1;ratioP1;P1;durP2;ratioP2;P2;SDS_P1;SDS_P2;PMS_P1;PMS_P2;Temp;Humidity;BMP_temperature;BMP_pressure;BME280_temperature;BME280_humidity;BME280_pressure;Samples;Min_cycle;Max_cycle;Signal;HPM_P1;HPM_P2
2022/10/06 00:01:17;;;;;;;;;;;13.90;58.40;;;9.60;92.28;96516.66;4994308;28;19909;-52
2022/10/06 00:03:45;;;;;;;;;;;13.90;57.80;;;9.56;93.12;96514.69;5010540;28;20481;-52
2022/10/06 00:06:15;;;;;;;;;;;13.90;57.90;;;9.51;93.51;96515.41;5028348;28;19917;-51
2022/10/06 00:08:43;;;;;;;;;;;13.80;57.90;;;9.50;93.46;96517.25;5005899;28;20320;-56
2022/10/06 00:11:11;;;;;;;;;;;13.80;58.00;;;9.52;93.56;96521.53;5012910;28;20291;-54
2022/10/06 00:13:37;;;;;;;;;;;13.80;58.10;;;9.50;93.54;96519.13;5026673;28;19909;-54
2022/10/06 00:16:16;;;;;;;;;;;13.80;58.20;;;9.48;93.71;96518.53;5010119;28;19909;-53
2022/10/06 00:18:44;;;;;;;;;;;13.80;58.20;;;9.47;93.69;96520.38;5012744;28;20395;-50
2022/10/06 00:21:09;;;;;;;;;;;13.80;58.20;;;9.46;94.14;96525.91;5003305;28;20063;-54
2022/10/06 00:23:35;;;;;;;;;;;13.80;58.20;;;9.42;95.29;96522.13;5027951;28;20003;-51
2022/10/06 00:26:01;;;;;;;;;;;13.80;58.20;;;9.40;95.80;96522.38;5018431;28;19914;-55
2022/10/06 00:28:27;;;;;;;;;;;13.80;58.30;;;9.39;95.95;96528.72;5010905;28;19917;-52
2022/10/06 00:30:55;;;;;;;;;;;13.70;58.30;;;9.39;96.11;96519.94;5011612;28;19909;-53
2022/10/06 00:33:23;;;;;;;;;;;13.70;58.30;;;9.40;95.93;96533.00;5007789;28;19968;-53
2022/10/06 00:35:59;;;;;;;;;;;13.70;58.40;;;9.38;95.72;96531.63;5007628;28;19913;-56
2022/10/06 00:38:37;;;;;;;;;;;13.70;58.50;;;9.40;95.86;96534.84;4994524;28;19910;-55
2022/10/06 00:41:06;;;;;;;;;;;13.70;58.50;;;9.43;96.06;96531.72;4990702;28;20008;-54
2022/10/06 00:43:47;;;;;;;;;;;13.70;58.60;;;9.49;94.73;96542.25;4987947;28;19910;-54
2022/10/06 00:46:30;;;;;;;;;;;13.70;58.70;;;9.50;94.35;96540.38;4988297;28;19997;-55
2022/10/06 00:49:22;;;;;;;;;;;13.70;58.70;;;9.55;95.01;96543.13;4975665;28;19909;-55
2022/10/06 00:51:58;;;;;;;;;;;13.70;58.70;;;9.57;94.16;96541.06;4985548;28;19909;-56
2022/10/06 00:54:26;;;;;;;;;;;13.70;58.80;;;9.57;94.16;96540.25;4979623;28;19918;-51
2022/10/06 00:56:54;;;;;;;;;;;13.70;58.80;;;9.58;94.32;96541.88;5006312;28;19909;-52
2022/10/06 00:59:20;;;;;;;;;;;13.70;58.90;;;9.57;94.21;96545.56;4992854;28;19909;-53
2022/10/06 01:01:55;;;;;;;;;;;13.70;58.80;;;9.60;94.19;96545.09;5006495;28;20391;-55
2022/10/06 01:04:28;;;;;;;;;;;13.70;58.90;;;9.58;93.81;96545.31;4991198;28;19967;-54
2022/10/06 01:06:58;;;;;;;;;;;13.70;58.90;;;9.57;93.40;96545.56;5006070;28;20028;-54
2022/10/06 01:09:27;;;;;;;;;;;13.80;58.90;;;9.49;93.60;96542.25;4980407;28;19914;-54
2022/10/06 01:12:02;;;;;;;;;;;13.70;58.80;;;9.48;92.87;96548.59;4971831;28;19921;-53
2022/10/06 01:14:34;;;;;;;;;;;13.70;58.80;;;9.41;94.28;96547.91;4982816;28;20284;-51
2022/10/06 01:17:28;;;;;;;;;;;13.70;58.80;;;9.39;94.11;96544.66;4991616;28;19913;-53
2022/10/06 01:20:17;;;;;;;;;;;13.70;58.90;;;9.34;94.61;96552.56;5005805;28;20399;-51
2022/10/06 01:23:00;;;;;;;;;;;13.60;58.80;;;9.33;94.58;96550.09;5006681;28;20282;-55
2022/10/06 01:25:33;;;;;;;;;;;13.60;58.90;;;9.33;95.23;96548.25;5005572;28;19948;-52
2022/10/06 01:28:08;;;;;;;;;;;13.60;59.00;;;9.32;95.01;96553.81;4990243;28;20292;-51
2022/10/06 01:30:53;;;;;;;;;;;13.60;59.10;;;9.28;95.48;96556.13;4990521;28;19919;-53
2022/10/06 01:33:21;;;;;;;;;;;13.60;59.10;;;9.27;95.46;96555.34;5018118;28;19963;-51
2022/10/06 01:35:51;;;;;;;;;;;13.60;59.10;;;9.44;97.66;96557.28;5006382;28;19925;-51
2022/10/06 01:38:18;;;;;;;;;;;13.60;59.20;;;9.74;98.02;96559.75;4986485;28;19960;-53
2022/10/06 01:40:45;;;;;;;;;;;13.70;59.60;;;9.96;97.14;96562.59;4956294;28;19933;-54
2022/10/06 01:43:20;;;;;;;;;;;13.90;60.00;;;10.09;95.98;96565.00;4987631;28;20060;-55
2022/10/06 01:45:57;;;;;;;;;;;14.00;60.00;;;10.15;95.55;96558.72;4971004;28;19914;-51
2022/10/06 01:48:24;;;;;;;;;;;14.20;60.00;;;10.21;95.37;96564.94;4970550;28;19910;-52
2022/10/06 01:50:50;;;;;;;;;;;14.30;59.80;;;10.27;95.50;96573.84;4987975;28;19913;-51
2022/10/06 01:53:24;;;;;;;;;;;14.40;59.80;;;10.24;93.50;96572.44;4991566;28;19916;-55
2022/10/06 01:55:57;;;;;;;;;;;14.50;59.70;;;10.08;93.39;96570.53;5005542;28;19916;-54
2022/10/06 01:58:23;;;;;;;;;;;14.50;59.40;;;9.95;93.19;96575.09;4989798;28;20045;-53
2022/10/06 02:00:51;;;;;;;;;;;14.50;59.20;;;9.82;94.74;96578.03;4991325;28;20024;-53
2022/10/06 02:03:20;;;;;;;;;;;14.40;59.00;;;9.79;95.58;96578.50;4987701;28;19910;-51
2022/10/06 02:05:46;;;;;;;;;;;14.30;59.00;;;9.77;96.32;96572.59;4990017;28;19913;-53
2022/10/06 02:08:21;;;;;;;;;;;14.30;59.00;;;9.72;96.82;96578.63;4989687;28;19964;-52
2022/10/06 02:10:52;;;;;;;;;;;14.20;59.10;;;9.70;95.90;96586.03;4990905;28;20419;-54
2022/10/06 02:13:19;;;;;;;;;;;14.10;59.10;;;9.67;95.68;96588.34;4986129;28;20368;-51
2022/10/06 02:15:44;;;;;;;;;;;14.00;59.20;;;9.60;96.57;96580.50;4970486;28;19918;-53
2022/10/06 02:18:10;;;;;;;;;;;14.00;59.20;;;9.55;96.80;96590.22;4971107;28;19920;-52
2022/10/06 02:20:45;;;;;;;;;;;13.90;59.30;;;9.48;97.79;96585.81;4974091;28;19949;-55
2022/10/06 02:23:11;;;;;;;;;;;13.90;59.30;;;9.49;98.29;96590.13;4985959;28;19917;-52
2022/10/06 02:25:45;;;;;;;;;;;13.90;59.50;;;9.41;100.00;96589.66;4986279;28;20384;-55
2022/10/06 02:28:15;;;;;;;;;;;13.80;59.60;;;9.50;100.00;96594.38;4985177;28;20381;-50
2022/10/06 02:30:46;;;;;;;;;;;13.80;59.70;;;9.44;100.00;96594.50;4983687;28;20358;-52
2022/10/06 02:33:18;;;;;;;;;;;13.80;59.80;;;9.52;100.00;96602.13;4979013;28;20376;-55
2022/10/06 02:35:44;;;;;;;;;;;13.70;59.80;;;9.53;100.00;96600.25;4990923;28;19962;-55
2022/10/06 02:38:10;;;;;;;;;;;13.70;59.90;;;9.45;100.00;96599.59;5005007;28;19913;-56
2022/10/06 02:40:38;;;;;;;;;;;13.70;59.90;;;9.49;100.00;96610.56;4991312;28;19924;-55
2022/10/06 02:43:10;;;;;;;;;;;13.70;60.00;;;9.48;100.00;96611.59;5004945;28;19987;-50
2022/10/06 02:45:42;;;;;;;;;;;13.70;60.10;;;9.41;100.00;96610.94;4975835;28;19914;-55
2022/10/06 02:48:10;;;;;;;;;;;13.70;60.10;;;9.40;100.00;96611.94;4970949;28;19909;-49
2022/10/06 02:50:44;;;;;;;;;;;13.70;60.10;;;9.36;100.00;96616.13;4986677;28;20375;-51
2022/10/06 02:53:10;;;;;;;;;;;13.70;61.00;;;9.33;100.00;96621.91;4989765;28;19914;-51
2022/10/06 02:55:39;;;;;;;;;;;13.60;60.30;;;9.35;100.00;96623.28;5004646;28;20301;-51
2022/10/06 02:58:05;;;;;;;;;;;13.60;60.40;;;9.35;100.00;96623.28;4990512;28;19962;-53
2022/10/06 03:00:37;;;;;;;;;;;13.60;60.40;;;9.30;100.00;96617.84;4990720;28;19940;-49
2022/10/06 03:03:05;;;;;;;;;;;13.60;60.40;;;9.22;100.00;96624.34;4956705;28;19910;-55
2022/10/06 03:05:33;;;;;;;;;;;13.60;60.40;;;9.22;100.00;96626.19;4971538;28;19918;-52
2022/10/06 03:07:59;;;;;;;;;;;13.50;60.40;;;9.13;100.00;96628.38;4988828;28;19991;-51
2022/10/06 03:10:25;;;;;;;;;;;13.50;60.50;;;9.11;100.00;96622.47;4989919;28;20005;-50
2022/10/06 03:12:53;;;;;;;;;;;13.50;60.50;;;9.06;100.00;96624.19;4989620;28;19955;-52
2022/10/06 03:15:19;;;;;;;;;;;13.40;60.50;;;9.09;100.00;96631.69;4977055;28;19959;-52
2022/10/06 03:17:48;;;;;;;;;;;13.40;60.70;;;9.11;100.00;96640.25;4990496;28;19913;-48
2022/10/06 03:20:20;;;;;;;;;;;13.40;60.80;;;9.11;100.00;96640.25;4985536;28;20402;-52
2022/10/06 03:22:55;;;;;;;;;;;13.40;60.90;;;9.05;100.00;96644.63;5005901;28;19956;-56
2022/10/06 03:25:21;;;;;;;;;;;13.40;60.90;;;9.00;100.00;96650.66;5005240;28;20751;-53
2022/10/06 03:28:02;;;;;;;;;;;13.40;61.00;;;9.00;100.00;96648.00;4989389;28;19956;-54
2022/10/06 03:30:36;;;;;;;;;;;13.30;61.00;;;9.00;100.00;96644.53;4990274;28;19909;-55
2022/10/06 03:33:14;;;;;;;;;;;13.30;61.10;;;8.97;100.00;96645.00;4996839;28;19910;-54
2022/10/06 03:36:04;;;;;;;;;;;13.30;61.10;;;8.98;100.00;96646.59;4993952;28;19914;-49
2022/10/06 03:38:36;;;;;;;;;;;13.30;61.20;;;9.00;100.00;96653.31;4994618;28;19916;-49
2022/10/06 03:41:11;;;;;;;;;;;13.30;61.30;;;9.01;100.00;96662.91;4992201;28;19924;-49
2022/10/06 03:43:43;;;;;;;;;;;13.30;61.40;;;9.04;100.00;96658.97;4993186;28;19951;-50
2022/10/06 03:46:12;;;;;;;;;;;13.30;61.50;;;9.04;100.00;96659.78;4988697;28;19949;-50
2022/10/06 03:48:52;;;;;;;;;;;13.30;61.50;;;9.08;100.00;96665.44;4987389;28;19921;-48
2022/10/06 03:51:41;;;;;;;;;;;13.30;61.60;;;9.10;100.00;96667.88;4984417;28;19952;-48
2022/10/06 03:54:13;;;;;;;;;;;13.40;61.70;;;9.11;100.00;96667.66;4973773;28;20019;-48
2022/10/06 03:56:43;;;;;;;;;;;13.40;61.70;;;9.12;100.00;96671.09;4991464;28;19960;-50
2022/10/06 03:59:16;;;;;;;;;;;13.40;61.70;;;9.10;100.00;96673.22;4993562;28;19960;-51
2022/10/06 04:01:47;;;;;;;;;;;13.40;61.70;;;9.11;100.00;96677.47;5007425;28;20361;-48
2022/10/06 04:04:22;;;;;;;;;;;13.40;61.70;;;9.08;100.00;96672.63;5008852;28;20707;-50
2022/10/06 04:06:50;;;;;;;;;;;13.40;61.70;;;9.07;100.00;96674.47;4992062;28;19913;-54
2022/10/06 04:09:21;;;;;;;;;;;13.40;61.80;;;9.11;100.00;96680.94;4992963;28;20284;-54
2022/10/06 04:11:47;;;;;;;;;;;13.40;61.80;;;9.10;100.00;96681.19;4991991;28;19917;-54
2022/10/06 04:14:15;;;;;;;;;;;13.40;61.80;;;9.11;100.00;96686.25;4981661;28;19914;-49
2022/10/06 04:16:56;;;;;;;;;;;13.30;61.80;;;9.14;100.00;96685.00;4988198;28;19914;-53
2022/10/06 04:19:22;;;;;;;;;;;13.40;61.90;;;9.14;100.00;96688.44;4993259;28;20291;-52
2022/10/06 04:21:51;;;;;;;;;;;13.40;62.00;;;9.11;100.00;96691.56;4992019;28;19917;-52
2022/10/06 04:24:17;;;;;;;;;;;13.40;62.00;;;9.10;100.00;96691.81;4992313;28;20008;-53
2022/10/06 04:26:45;;;;;;;;;;;13.40;62.00;;;9.13;100.00;96686.03;4984311;28;20518;-50
2022/10/06 04:29:17;;;;;;;;;;;13.40;62.00;;;9.11;100.00;96696.88;4973458;28;19917;-52
2022/10/06 04:31:43;;;;;;;;;;;13.30;62.10;;;9.11;100.00;96696.88;4972213;28;19916;-49
2022/10/06 04:34:14;;;;;;;;;;;13.40;62.10;;;9.15;100.00;96699.88;4988425;28;19959;-52
2022/10/06 04:36:42;;;;;;;;;;;13.40;62.20;;;9.14;100.00;96708.91;4987832;28;20048;-50
2022/10/06 04:39:14;;;;;;;;;;;13.40;62.20;;;9.11;100.00;96720.00;4989959;28;19958;-51
2022/10/06 04:41:52;;;;;;;;;;;13.40;62.20;;;9.09;100.00;96714.94;4991068;28;19925;-51
2022/10/06 04:44:18;;;;;;;;;;;13.40;62.30;;;9.11;100.00;96718.16;5007256;28;20503;-50
2022/10/06 04:46:44;;;;;;;;;;;13.40;62.30;;;9.09;100.00;96719.41;4992078;28;19956;-50
2022/10/06 04:49:13;;;;;;;;;;;13.40;62.30;;;9.09;100.00;96724.72;5006875;28;19961;-56
2022/10/06 04:51:48;;;;;;;;;;;13.30;62.30;;;9.07;100.00;96730.28;4992484;28;19916;-50
2022/10/06 04:54:18;;;;;;;;;;;13.30;62.30;;;9.04;100.00;96736.84;4991282;28;19947;-52
2022/10/06 04:56:43;;;;;;;;;;;13.40;62.50;;;9.00;100.00;96721.59;4990177;28;19920;-52
2022/10/06 04:59:18;;;;;;;;;;;13.30;62.40;;;9.01;100.00;96731.19;4992313;28;19914;-51
2022/10/06 05:01:43;;;;;;;;;;;13.40;62.50;;;9.01;100.00;96736.50;4988803;28;19952;-51
2022/10/06 05:04:12;;;;;;;;;;;13.30;62.60;;;9.01;100.00;96736.50;4974735;28;19944;-56
2022/10/06 05:06:43;;;;;;;;;;;13.30;62.70;;;8.98;100.00;96743.06;4991792;28;20376;-52
2022/10/06 05:09:15;;;;;;;;;;;13.30;62.70;;;8.99;100.00;96743.88;4991395;28;20386;-51
2022/10/06 05:11:44;;;;;;;;;;;13.30;62.70;;;8.97;100.00;96748.63;4992250;28;20291;-51
2022/10/06 05:14:15;;;;;;;;;;;13.30;62.80;;;8.94;100.00;96757.06;4991544;28;19909;-49
2022/10/06 05:16:47;;;;;;;;;;;13.30;62.80;;;8.90;100.00;96751.38;4974880;28;19979;-51
2022/10/06 05:19:16;;;;;;;;;;;13.30;62.90;;;8.92;100.00;96751.94;4973927;28;19963;-53
2022/10/06 05:21:48;;;;;;;;;;;13.20;62.90;;;8.97;100.00;96752.09;5007112;28;19913;-56
2022/10/06 05:24:19;;;;;;;;;;;13.30;63.00;;;8.92;100.00;96759.91;5002504;28;19993;-55
2022/10/06 05:26:48;;;;;;;;;;;13.20;63.00;;;8.92;100.00;96753.81;4984238;28;20012;-53
2022/10/06 05:29:17;;;;;;;;;;;13.30;63.10;;;8.86;100.00;96752.84;4972074;28;19936;-50
2022/10/06 05:31:43;;;;;;;;;;;13.20;63.00;;;8.80;100.00;96757.19;4971536;28;19964;-53
2022/10/06 05:34:12;;;;;;;;;;;13.20;63.00;;;8.82;100.00;96762.31;4987377;28;19937;-49
2022/10/06 05:36:38;;;;;;;;;;;13.20;63.00;;;8.84;100.00;96764.72;4972261;28;19909;-49
2022/10/06 05:39:19;;;;;;;;;;;13.20;63.10;;;8.80;100.00;96769.69;4988176;28;20664;-52
2022/10/06 05:41:44;;;;;;;;;;;13.20;63.20;;;8.80;100.00;96772.34;4910111;28;19940;-53
2022/10/06 05:44:10;;;;;;;;;;;13.20;63.20;;;8.81;100.00;96763.34;4985167;28;19942;-51
2022/10/06 05:46:36;;;;;;;;;;;13.20;63.20;;;8.80;100.00;96767.03;4991411;28;20319;-52
2022/10/06 05:49:09;;;;;;;;;;;13.20;64.00;;;8.82;100.00;96764.97;4990758;28;19913;-51
2022/10/06 05:51:37;;;;;;;;;;;13.20;63.20;;;8.80;100.00;96770.50;4991741;28;19916;-55
2022/10/06 05:54:03;;;;;;;;;;;13.20;63.20;;;8.79;100.00;96762.75;5005897;28;19909;-51
2022/10/06 05:56:34;;;;;;;;;;;13.20;63.20;;;8.80;100.00;96775.81;4976793;28;19916;-51
2022/10/06 05:59:01;;;;;;;;;;;13.20;63.30;;;8.95;100.00;96774.59;4970747;28;19917;-52
2022/10/06 06:01:41;;;;;;;;;;;13.30;63.40;;;9.13;100.00;96790.50;4986914;28;20285;-50
2022/10/06 06:04:11;;;;;;;;;;;13.40;63.70;;;9.16;100.00;96789.25;4979586;28;19913;-53
2022/10/06 06:06:44;;;;;;;;;;;13.40;63.70;;;9.16;100.00;96794.56;5005987;28;19921;-52
2022/10/06 06:09:17;;;;;;;;;;;13.50;63.60;;;9.20;100.00;96798.41;4990420;28;19917;-55
2022/10/06 06:11:53;;;;;;;;;;;13.50;63.60;;;9.20;100.00;96793.06;4989900;28;19909;-54
2022/10/06 06:15:59;;;;;;;;;;;13.60;63.60;;;9.30;100.00;96797.84;5005574;28;19910;-53
2022/10/06 06:17:12;;;;;;;;;;;13.60;64.40;;;9.38;100.00;96795.69;5002953;28;19913;-54
2022/10/06 06:19:38;;;;;;;;;;;13.70;63.70;;;9.38;100.00;96795.69;4990208;28;19910;-56
2022/10/06 06:22:03;;;;;;;;;;;13.70;63.60;;;9.39;100.00;96797.28;5006258;28;20294;-49
2022/10/06 06:24:29;;;;;;;;;;;13.80;63.70;;;9.49;100.00;96796.75;4990218;28;19924;-50
2022/10/06 06:26:55;;;;;;;;;;;13.90;63.70;;;9.57;100.00;96793.75;4989749;28;19949;-51
2022/10/06 06:29:22;;;;;;;;;;;13.90;63.70;;;9.60;100.00;96793.31;4991325;28;20376;-55
2022/10/06 06:31:51;;;;;;;;;;;14.00;63.80;;;9.65;100.00;96800.59;4973229;28;19913;-53
2022/10/06 06:34:16;;;;;;;;;;;14.10;63.80;;;9.72;100.00;96799.47;4990478;28;20283;-54
2022/10/06 06:36:45;;;;;;;;;;;14.10;63.70;;;9.82;100.00;96804.22;4990964;28;19916;-51
2022/10/06 06:39:17;;;;;;;;;;;14.20;63.80;;;9.91;100.00;96802.03;4974517;28;19914;-50
2022/10/06 06:41:45;;;;;;;;;;;14.30;63.80;;;9.98;100.00;96804.56;4970314;28;19924;-49
2022/10/06 06:44:13;;;;;;;;;;;14.40;63.80;;;10.09;100.00;96811.75;4971541;28;19918;-51
2022/10/06 06:46:42;;;;;;;;;;;14.50;63.90;;;10.20;100.00;96808.28;4971382;28;19914;-49
2022/10/06 06:49:19;;;;;;;;;;;14.60;63.90;;;10.29;100.00;96809.59;4975389;28;19913;-49
2022/10/06 06:51:49;;;;;;;;;;;14.70;63.90;;;10.38;100.00;96813.53;5006093;28;19941;-52
2022/10/06 06:54:17;;;;;;;;;;;14.80;63.80;;;10.46;100.00;96815.00;4990949;28;19921;-51
2022/10/06 06:56:44;;;;;;;;;;;14.90;63.80;;;10.55;100.00;96815.47;4989531;28;19909;-52
2022/10/06 06:59:13;;;;;;;;;;;15.00;63.80;;;10.62;100.00;96819.63;4989756;28;19959;-54
2022/10/06 07:01:43;;;;;;;;;;;15.10;63.80;;;10.72;100.00;96824.38;5004767;28;20008;-49
2022/10/06 07:04:13;;;;;;;;;;;15.20;63.70;;;10.82;100.00;96819.25;4971013;28;20385;-50
2022/10/06 07:06:52;;;;;;;;;;;15.40;63.70;;;10.92;100.00;96818.63;4973639;28;19993;-49
2022/10/06 07:09:19;;;;;;;;;;;15.50;63.60;;;11.02;100.00;96821.50;4992548;28;20037;-53
2022/10/06 07:11:49;;;;;;;;;;;15.70;63.60;;;11.16;100.00;96823.91;5009591;28;19936;-52
2022/10/06 07:14:22;;;;;;;;;;;15.90;63.50;;;11.34;100.00;96831.69;4993580;28;20015;-49
2022/10/06 07:25:25;;;;;;;;;;;17.30;62.80;;;12.54;100.00;96835.00;4988346;28;19920;-49
2022/10/06 07:27:52;;;;;;;;;;;17.60;62.60;;;12.84;100.00;96836.47;4993722;28;19913;-51
2022/10/06 07:30:25;;;;;;;;;;;18.00;62.40;;;13.24;100.00;96835.34;4992798;28;20288;-50
2022/10/06 07:32:53;;;;;;;;;;;18.40;62.10;;;13.73;97.90;96838.00;4993157;28;20066;-53
2022/10/06 07:35:21;;;;;;;;;;;19.10;61.80;;;14.33;94.28;96842.25;4993015;28;19909;-51
2022/10/06 07:38:01;;;;;;;;;;;19.80;61.30;;;14.98;87.44;96840.25;4986897;28;19909;-52
2022/10/06 07:40:27;;;;;;;;;;;20.50;60.70;;;15.60;84.92;96841.22;4973244;28;19918;-54
2022/10/06 07:42:55;;;;;;;;;;;21.20;60.10;;;16.18;80.35;96841.84;4973124;28;20299;-57
2022/10/06 07:45:44;;;;;;;;;;;21.90;59.50;;;16.52;76.88;96841.28;4974192;28;19914;-52
2022/10/06 07:48:17;;;;;;;;;;;22.20;59.00;;;16.90;74.11;96847.94;4993016;28;19909;-50
2022/10/06 07:50:46;;;;;;;;;;;22.60;58.50;;;17.42;71.85;96843.13;5007385;28;19910;-55
2022/10/06 07:53:17;;;;;;;;;;;23.20;58.00;;;17.90;69.70;96844.22;5008515;28;19913;-54
2022/10/06 07:55:46;;;;;;;;;;;23.80;57.40;;;18.30;68.27;96849.56;4985986;28;20377;-50
2022/10/06 07:58:22;;;;;;;;;;;24.30;56.90;;;18.75;66.46;96844.88;4973213;28;19910;-51
2022/10/06 08:00:52;;;;;;;;;;;24.80;56.30;;;19.05;65.63;96851.81;4973137;28;19997;-53
2022/10/06 08:03:18;;;;;;;;;;;25.20;55.80;;;19.28;64.30;96850.19;4989923;28;19917;-53
2022/10/06 08:05:49;;;;;;;;;;;25.50;55.50;;;19.36;64.25;96852.25;4991653;28;19922;-53
2022/10/06 08:08:18;;;;;;;;;;;25.50;55.10;;;19.32;63.27;96854.72;5003421;28;19964;-50
2022/10/06 08:10:56;;;;;;;;;;;25.50;54.80;;;19.33;62.35;96855.53;4973843;28;19913;-50
2022/10/06 08:13:23;;;;;;;;;;;25.50;54.50;;;19.61;61.56;96853.81;4986570;28;20588;-52
2022/10/06 08:15:55;;;;;;;;;;;25.70;54.10;;;19.84;61.15;96850.28;4972842;28;19910;-52
2022/10/06 08:18:24;;;;;;;;;;;26.00;53.80;;;20.00;60.17;96853.53;4973610;28;19913;-56
2022/10/06 08:20:49;;;;;;;;;;;26.40;53.50;;;20.23;60.26;96856.44;4985758;28;20331;-55
2022/10/06 08:23:18;;;;;;;;;;;26.70;53.00;;;20.49;59.13;96860.31;4992179;28;19916;-52
2022/10/06 08:25:55;;;;;;;;;;;27.10;52.70;;;20.88;58.59;96853.69;4991360;28;19968;-54
2022/10/06 08:28:23;;;;;;;;;;;27.40;52.30;;;21.18;58.46;96862.31;4993020;28;20364;-55
2022/10/06 08:31:01;;;;;;;;;;;27.90;52.10;;;21.24;56.93;96856.50;4992969;28;19909;-53
2022/10/06 08:33:56;;;;;;;;;;;28.20;51.60;;;21.52;56.21;96853.78;4991697;28;19910;-54
2022/10/06 08:36:25;;;;;;;;;;;28.50;50.90;;;21.83;55.88;96853.91;4992713;28;20015;-53
2022/10/06 08:38:51;;;;;;;;;;;28.80;50.60;;;22.10;55.29;96855.75;4990471;28;19909;-55
2022/10/06 08:41:45;;;;;;;;;;;28.90;50.30;;;22.14;54.14;96855.91;4992881;28;19917;-51
2022/10/06 08:44:20;;;;;;;;;;;29.00;49.90;;;22.24;54.16;96857.63;5002068;28;20266;-53
2022/10/06 08:47:26;;;;;;;;;;;29.20;49.60;;;21.98;54.86;96860.91;4987958;28;19913;-50
2022/10/06 08:49:56;;;;;;;;;;;29.30;49.30;;;22.38;53.79;96858.38;4960351;28;19909;-55
2022/10/06 08:52:59;;;;;;;;;;;29.40;49.10;;;22.76;52.82;96864.16;4991036;28;19940;-52
2022/10/06 08:56:02;;;;;;;;;;;29.50;48.80;;;22.84;52.36;96860.69;4974999;28;20576;-48
2022/10/06 08:59:02;;;;;;;;;;;29.60;48.50;;;23.00;51.54;96863.00;4991351;28;20004;-48
2022/10/06 09:01:43;;;;;;;;;;;29.70;48.30;;;23.30;51.49;96864.09;4987505;28;19917;-56
2022/10/06 09:04:25;;;;;;;;;;;29.90;48.00;;;23.46;50.50;96864.44;4987224;28;20023;-50
2022/10/06 09:07:11;;;;;;;;;;;30.10;47.90;;;23.61;51.05;96855.06;4972671;28;19914;-57
2022/10/06 09:09:58;;;;;;;;;;;30.30;47.70;;;23.46;50.14;96865.25;4992115;28;19917;-49
2022/10/06 09:12:43;;;;;;;;;;;30.50;47.30;;;23.32;50.84;96859.94;4979780;28;19913;-51
2022/10/06 09:15:32;;;;;;;;;;;30.50;46.70;;;23.14;50.64;96858.28;4985331;28;19916;-48
2022/10/06 09:18:31;;;;;;;;;;;30.60;46.50;;;23.09;50.47;96863.84;4972842;28;20001;-50
2022/10/06 09:21:29;;;;;;;;;;;30.60;46.10;;;23.33;50.22;96856.09;4974473;28;19910;-48
2022/10/06 09:24:23;;;;;;;;;;;30.70;46.00;;;23.52;49.46;96863.97;4993449;28;19909;-49
2022/10/06 09:26:51;;;;;;;;;;;30.70;45.80;;;23.75;48.80;96864.72;5003133;28;19917;-52
2022/10/06 09:29:24;;;;;;;;;;;30.90;45.60;;;23.83;48.67;96865.81;5005857;28;19924;-51
2022/10/06 09:31:50;;;;;;;;;;;31.10;45.40;;;23.85;47.95;96865.50;5006083;28;20007;-51
2022/10/06 09:34:52;;;;;;;;;;;31.30;45.10;;;24.31;47.37;96859.41;4988564;28;20004;-53
2022/10/06 09:37:18;;;;;;;;;;;31.50;44.80;;;24.44;47.23;96863.09;5005064;28;19955;-51
2022/10/06 09:39:50;;;;;;;;;;;31.90;44.60;;;24.57;46.56;96862.13;5006334;28;20288;-49
2022/10/06 09:42:28;;;;;;;;;;;32.20;44.30;;;24.69;46.51;96858.72;4990284;28;19949;-48
2022/10/06 09:45:15;;;;;;;;;;;32.50;44.00;;;25.01;43.71;96864.69;5005304;28;20130;-50
2022/10/06 09:47:43;;;;;;;;;;;32.80;43.70;;;25.12;43.42;96858.59;5005644;28;19913;-52
2022/10/06 09:50:16;;;;;;;;;;;33.10;43.40;;;25.32;43.61;96858.97;4996841;28;19914;-47
2022/10/06 09:53:20;;;;;;;;;;;33.30;43.60;;;25.69;42.13;96862.75;4993753;28;19917;-49
2022/10/06 09:55:53;;;;;;;;;;;33.40;42.80;;;25.83;40.73;96854.38;4985409;28;19910;-50
2022/10/06 09:58:36;;;;;;;;;;;33.70;42.50;;;26.01;40.06;96850.38;4999599;28;20012;-47
2022/10/06 10:01:13;;;;;;;;;;;34.00;42.20;;;26.28;38.67;96854.47;5005554;28;19917;-48
2022/10/06 10:03:59;;;;;;;;;;;34.20;41.80;;;26.58;39.63;96851.66;4988875;28;20327;-47
2022/10/06 10:06:33;;;;;;;;;;;34.40;41.30;;;26.48;41.33;96855.59;4986121;28;19914;-50
2022/10/06 10:09:18;;;;;;;;;;;34.60;41.00;;;26.44;41.63;96846.44;5005460;28;19910;-48
2022/10/06 10:14:38;;;;;;;;;;;34.60;40.80;;;25.91;39.42;96831.66;4980356;28;19987;-48
2022/10/06 10:17:22;;;;;;;;;;;34.40;40.70;;;25.89;39.77;96839.41;4978249;28;19925;-51
2022/10/06 10:19:53;;;;;;;;;;;34.30;40.40;;;25.90;39.71;96837.47;5001220;28;20032;-50
2022/10/06 10:22:32;;;;;;;;;;;34.30;40.20;;;26.03;40.28;96837.19;4970287;28;19909;-51
2022/10/06 10:25:25;;;;;;;;;;;34.30;40.00;;;26.06;40.79;96833.78;4970387;28;19910;-49
2022/10/06 10:28:09;;;;;;;;;;;34.40;39.90;;;25.95;41.28;96840.78;5002463;28;19979;-48
2022/10/06 10:31:02;;;;;;;;;;;34.40;39.70;;;25.89;41.79;96833.94;5006229;28;19999;-49
2022/10/06 10:33:53;;;;;;;;;;;34.40;39.50;;;25.84;40.84;96834.94;4976613;28;20172;-47
2022/10/06 10:36:49;;;;;;;;;;;34.40;39.30;;;26.25;40.98;96836.00;5005110;28;19916;-47
2022/10/06 10:39:47;;;;;;;;;;;34.50;39.80;;;26.56;39.86;96831.25;5005574;28;20349;-49
2022/10/06 10:43:03;;;;;;;;;;;34.70;39.00;;;26.57;39.49;96838.31;4993697;28;20442;-47
2022/10/06 10:45:58;;;;;;;;;;;34.70;38.80;;;26.40;40.15;96837.34;4977471;28;19919;-49
2022/10/06 10:48:50;;;;;;;;;;;34.80;38.60;;;26.44;41.18;96846.44;5009161;28;19913;-54
2022/10/06 10:51:52;;;;;;;;;;;34.90;38.30;;;26.26;41.23;96839.53;4993158;28;20291;-48
2022/10/06 10:54:44;;;;;;;;;;;34.80;37.80;;;26.51;41.10;96838.53;5008252;28;19914;-52
2022/10/06 10:57:36;;;;;;;;;;;34.70;37.70;;;26.50;40.09;96838.88;4993143;28;19968;-47
2022/10/06 11:00:19;;;;;;;;;;;34.80;37.50;;;26.98;39.84;96837.34;5009433;28;19909;-50
2022/10/06 11:02:51;;;;;;;;;;;35.00;37.60;;;26.93;40.15;96834.84;4992158;28;20518;-49
2022/10/06 11:06:00;;;;;;;;;;;35.20;37.60;;;26.76;40.42;96827.66;4993185;28;19913;-54
2022/10/06 11:08:56;;;;;;;;;;;35.40;37.30;;;27.08;40.53;96823.25;4990793;28;19917;-48
2022/10/06 11:11:37;;;;;;;;;;;35.70;37.20;;;27.29;39.70;96827.81;4975028;28;19914;-50
2022/10/06 11:14:30;;;;;;;;;;;35.90;37.10;;;27.28;40.08;96826.25;4981930;28;20475;-47
2022/10/06 11:17:07;;;;;;;;;;;36.10;36.80;;;27.16;40.83;96822.34;4976045;28;20020;-49
2022/10/06 11:20:20;;;;;;;;;;;36.30;36.70;;;27.30;41.12;96824.75;4987935;28;19913;-48
2022/10/06 11:23:11;;;;;;;;;;;36.40;36.60;;;27.29;41.11;96814.94;4973789;28;20068;-47
2022/10/06 11:26:10;;;;;;;;;;;36.50;37.10;;;26.96;40.89;96817.78;4992374;28;19934;-51
2022/10/06 11:29:37;;;;;;;;;;;36.00;36.50;;;26.90;42.47;96816.41;5009338;28;20337;-48
2022/10/06 11:32:43;;;;;;;;;;;35.80;36.70;;;26.77;42.25;96810.13;4990896;28;19916;-50
2022/10/06 11:35:25;;;;;;;;;;;35.80;36.70;;;26.51;41.60;96808.50;4983779;28;19910;-48
2022/10/06 11:38:39;;;;;;;;;;;35.70;36.60;;;26.75;41.62;96809.66;4990431;28;19932;-56
2022/10/06 11:41:26;;;;;;;;;;;35.80;36.60;;;26.54;42.08;96807.00;4991200;28;19921;-51
2022/10/06 11:44:55;;;;;;;;;;;35.40;36.80;;;26.67;41.65;96797.72;4990000;28;19953;-51
2022/10/06 11:47:55;;;;;;;;;;;35.20;36.90;;;26.75;41.91;96798.72;4971176;28;19914;-51
2022/10/06 11:50:42;;;;;;;;;;;35.30;36.80;;;26.97;40.83;96798.28;4985166;28;19910;-56
2022/10/06 11:53:43;;;;;;;;;;;35.70;36.70;;;27.35;40.35;96799.09;4972698;28;19917;-47
2022/10/06 11:56:18;;;;;;;;;;;35.90;36.50;;;27.65;39.33;96797.69;4972090;28;20429;-48
2022/10/06 11:58:50;;;;;;;;;;;36.20;36.40;;;27.78;40.13;96790.25;5002334;28;19975;-47
2022/10/06 12:01:33;;;;;;;;;;;36.30;36.30;;;27.71;40.50;96792.78;4991866;28;20368;-49
2022/10/06 12:04:08;;;;;;;;;;;36.40;36.30;;;27.60;40.54;96791.66;4974058;28;19909;-47
2022/10/06 12:06:46;;;;;;;;;;;36.60;36.30;;;27.81;39.85;96783.31;4988333;28;19914;-47
2022/10/06 12:09:42;;;;;;;;;;;36.60;36.10;;;28.27;38.85;96781.06;4981035;28;19967;-50